Time;durP1;ratioP1;P1;durP2;ratioP2;P2;SDS_P1;SDS_P2;PMS_P1;PMS_P2;Temp;Humidity;BMP_temperature;BMP_pressure;BME280_temperature;BME280_humidity;BME280_pressure;Samples;Min_cycle;Max_cycle;Signal;HPM_P1;HPM_P2
2023/09/29 00:00:48;;;;;;;7.88;3.75;;;16.30;95.30;;;;;;4875437;29;20219;-75
2023/09/29 00:03:15;;;;;;;7.15;3.70;;;16.20;95.50;;;;;;4895575;29;20044;-73
2023/09/29 00:05:43;;;;;;;7.63;4.00;;;16.20;95.40;;;;;;4895445;29;20037;-74
2023/09/29 00:08:09;;;;;;;8.53;3.67;;;16.20;95.80;;;;;;4894363;29;20056;-74
2023/09/29 00:10:39;;;;;;;8.93;3.65;;;16.10;95.50;;;;;;4894388;29;20023;-74
2023/09/29 00:13:06;;;;;;;8.27;3.75;;;16.20;95.50;;;;;;4891372;29;20085;-75
2023/09/29 00:15:33;;;;;;;8.68;3.67;;;16.10;95.80;;;;;;4891024;29;20044;-75
2023/09/29 00:18:02;;;;;;;7.18;3.63;;;16.10;95.90;;;;;;4891170;29;20024;-75
2023/09/29 00:20:29;;;;;;;5.72;2.83;;;16.00;95.90;;;;;;4873251;29;20040;-75
2023/09/29 00:22:57;;;;;;;6.95;3.00;;;16.00;96.00;;;;;;4891048;29;20049;-75
2023/09/29 00:25:23;;;;;;;5.22;3.13;;;16.00;96.10;;;;;;4891220;29;20116;-75
2023/09/29 00:27:50;;;;;;;5.63;2.70;;;16.00;96.40;;;;;;4909362;29;20045;-75
2023/09/29 00:30:16;;;;;;;7.60;3.78;;;15.90;96.40;;;;;;4909675;29;20314;-75
2023/09/29 05:55:13;;;;;;;4.53;2.40;;;15.50;99.90;;;;;;5291298;23;20052;-74
2023/09/29 05:57:39;;;;;;;8.95;2.75;;;15.60;99.90;;;;;;4888119;29;20052;-75
2023/09/29 06:00:05;;;;;;;9.52;3.63;;;15.50;99.90;;;;;;4900804;29;20113;-75
2023/09/29 06:02:31;;;;;;;6.93;3.00;;;15.50;99.90;;;;;;4906989;29;20020;-76
2023/09/29 06:04:57;;;;;;;6.35;3.15;;;15.50;99.90;;;;;;4907324;29;20037;-74
2023/09/29 06:07:23;;;;;;;7.97;3.30;;;15.60;99.90;;;;;;4907840;29;20100;-77
2023/09/29 06:09:49;;;;;;;7.20;3.50;;;15.60;99.90;;;;;;4907379;29;20298;-74
2023/09/29 06:12:14;;;;;;;6.85;3.58;;;15.80;99.90;;;;;;4907919;29;20183;-76
2023/09/29 06:14:40;;;;;;;5.75;3.03;;;15.90;99.90;;;;;;4890026;29;20040;-76
2023/09/29 06:17:06;;;;;;;6.68;3.28;;;16.10;99.90;;;;;;4906631;29;20028;-75
2023/09/29 06:19:31;;;;;;;6.75;3.40;;;16.20;99.70;;;;;;4890742;29;20187;-75
2023/09/29 06:21:57;;;;;;;6.35;3.33;;;16.30;99.50;;;;;;4890587;29;20043;-75
2023/09/29 06:24:22;;;;;;;6.28;3.30;;;16.30;98.80;;;;;;4907665;29;20137;-76
2023/09/29 06:26:48;;;;;;;7.13;3.10;;;16.40;99.00;;;;;;4907558;29;20024;-77
2023/09/29 06:29:14;;;;;;;7.15;3.00;;;16.50;98.40;;;;;;4907585;29;20032;-75
2023/09/29 06:31:40;;;;;;;5.25;2.92;;;16.40;98.30;;;;;;4898865;29;20035;-75
2023/09/29 06:34:05;;;;;;;7.40;3.20;;;16.50;98.30;;;;;;4907130;29;20032;-76
2023/09/29 06:36:32;;;;;;;7.55;3.15;;;16.60;98.10;;;;;;4891129;29;20039;-75
2023/09/29 06:38:57;;;;;;;7.00;3.33;;;16.70;98.10;;;;;;4907395;29;20061;-75
2023/09/29 06:41:23;;;;;;;8.32;2.92;;;16.80;97.90;;;;;;4891090;29;20096;-75
2023/09/29 06:43:50;;;;;;;7.32;3.17;;;16.90;97.70;;;;;;4906695;29;20040;-75
2023/09/29 06:46:15;;;;;;;9.57;3.30;;;17.00;97.50;;;;;;4903248;29;20243;-74
2023/09/29 06:48:43;;;;;;;10.88;3.30;;;17.00;97.10;;;;;;4888699;29;20053;-75
2023/09/29 06:51:09;;;;;;;7.77;3.63;;;17.20;96.90;;;;;;4888409;29;20056;-76
2023/09/29 06:53:34;;;;;;;5.78;3.22;;;17.30;96.80;;;;;;4888822;29;20024;-76
2023/09/29 06:56:00;;;;;;;7.28;3.65;;;17.40;96.30;;;;;;4888010;29;20051;-75
2023/09/29 06:58:26;;;;;;;5.82;3.03;;;17.50;96.00;;;;;;4872434;29;20227;-76
2023/09/29 07:00:53;;;;;;;8.88;3.00;;;17.60;96.10;;;;;;4888230;29;20020;-76
2023/09/29 07:03:19;;;;;;;6.85;3.33;;;17.70;96.00;;;;;;4903097;29;20080;-75
2023/09/29 07:05:46;;;;;;;6.00;2.95;;;17.80;95.20;;;;;;4907141;29;20044;-77
2023/09/29 07:08:13;;;;;;;6.95;3.40;;;17.80;95.20;;;;;;4907328;29;20036;-77
2023/09/29 07:10:40;;;;;;;6.70;3.33;;;17.80;95.20;;;;;;4907424;29;20029;-76
2023/09/29 07:13:05;;;;;;;10.80;3.22;;;17.90;95.00;;;;;;4907091;29;20105;-77
2023/09/29 07:15:31;;;;;;;7.13;3.22;;;18.00;95.00;;;;;;4890853;29;20052;-74
2023/09/29 07:17:57;;;;;;;7.18;3.10;;;18.00;94.70;;;;;;4895958;29;20033;-77
2023/09/29 07:20:22;;;;;;;7.88;3.40;;;18.00;94.70;;;;;;4888472;29;20059;-78
2023/09/29 07:22:51;;;;;;;7.60;3.60;;;18.10;94.50;;;;;;4888428;29;20080;-76
2023/09/29 07:25:18;;;;;;;;;;;18.10;94.50;;;;;;4889121;29;20036;-75
2023/09/29 07:27:44;;;;;;;8.07;3.40;;;18.00;94.70;;;;;;4888993;29;20044;-76
2023/09/29 07:30:10;;;;;;;8.50;3.30;;;18.00;94.70;;;;;;4874627;29;20084;-76
2023/09/29 07:32:41;;;;;;;6.90;3.63;;;18.00;94.80;;;;;;4893105;29;20033;-74
2023/09/29 07:35:07;;;;;;;8.13;3.45;;;18.10;95.00;;;;;;4877009;29;20041;-74
2023/09/29 07:37:33;;;;;;;7.35;3.13;;;18.20;94.50;;;;;;4892065;29;20095;-76
2023/09/29 07:39:59;;;;;;;6.20;3.28;;;18.30;94.30;;;;;;4891174;29;20052;-76
2023/09/29 07:42:25;;;;;;;5.43;3.08;;;18.30;94.20;;;;;;4891709;29;20353;-75
2023/09/29 07:44:50;;;;;;;6.70;3.20;;;18.40;94.20;;;;;;4891382;29;20029;-75
2023/09/29 07:47:17;;;;;;;8.65;3.47;;;18.50;94.10;;;;;;4891657;29;20029;-77
2023/09/29 07:49:42;;;;;;;9.23;3.60;;;18.60;93.90;;;;;;4891543;29;20040;-76
2023/09/29 07:52:08;;;;;;;8.23;3.60;;;18.70;93.90;;;;;;4859309;29;20021;-76
2023/09/29 07:54:37;;;;;;;7.00;3.08;;;18.60;93.80;;;;;;4891641;29;20124;-76
2023/09/29 07:57:03;;;;;;;9.88;3.55;;;18.80;93.80;;;;;;4874824;29;20048;-75
2023/09/29 07:59:28;;;;;;;7.40;3.10;;;18.90;93.50;;;;;;4891560;29;20028;-76
2023/09/29 08:01:57;;;;;;;8.45;3.53;;;19.10;93.30;;;;;;4894524;29;20028;-75
2023/09/29 08:04:23;;;;;;;9.05;3.88;;;19.40;92.80;;;;;;4907754;29;20036;-75
2023/09/29 08:06:49;;;;;;;8.82;3.42;;;19.50;92.40;;;;;;4902434;29;20274;-75
2023/09/29 08:09:14;;;;;;;7.10;3.45;;;19.40;92.30;;;;;;4910212;29;20080;-76
2023/09/29 08:11:42;;;;;;;8.10;3.33;;;19.50;92.60;;;;;;4909833;29;20036;-75
2023/09/29 08:14:08;;;;;;;7.03;3.13;;;19.50;92.50;;;;;;4909278;29;20032;-75
2023/09/29 08:16:34;;;;;;;8.43;3.40;;;19.50;92.30;;;;;;4910139;29;20480;-74
2023/09/29 08:19:01;;;;;;;6.43;3.40;;;19.50;92.60;;;;;;4909586;29;20068;-77
2023/09/29 08:21:26;;;;;;;8.68;3.67;;;19.60;92.70;;;;;;4893049;29;20044;-75
2023/09/29 08:23:52;;;;;;;8.00;3.40;;;19.60;92.30;;;;;;4890370;29;20072;-76
2023/09/29 08:26:18;;;;;;;10.63;3.30;;;19.70;92.40;;;;;;4891127;29;20032;-76
2023/09/29 08:28:44;;;;;;;9.63;4.40;;;19.70;92.20;;;;;;4890726;29;20053;-75
2023/09/29 08:31:16;;;;;;;7.85;3.78;;;19.80;92.10;;;;;;4891130;29;20096;-76
2023/09/29 08:33:42;;;;;;;7.28;3.72;;;20.00;91.80;;;;;;4890886;29;20044;-76
2023/09/29 08:36:08;;;;;;;7.00;3.50;;;20.30;91.60;;;;;;4894855;29;20052;-77
2023/09/29 08:38:34;;;;;;;11.10;4.28;;;20.50;91.30;;;;;;4889544;29;20029;-75
2023/09/29 08:41:04;;;;;;;7.47;3.42;;;20.50;91.10;;;;;;4895515;29;20105;-75
2023/09/29 08:43:32;;;;;;;7.25;3.20;;;20.50;91.10;;;;;;4900435;29;20028;-76
2023/09/29 08:45:59;;;;;;;10.75;4.00;;;20.50;91.30;;;;;;4890294;29;20100;-75
2023/09/29 08:48:32;;;;;;;7.60;3.28;;;20.50;91.30;;;;;;4875122;29;20060;-74
2023/09/29 08:51:01;;;;;;;9.45;3.92;;;20.60;91.30;;;;;;4897073;29;20088;-74
2023/09/29 08:53:28;;;;;;;8.35;3.72;;;20.80;91.10;;;;;;4896530;29;20036;-74
2023/09/29 08:55:55;;;;;;;9.70;4.18;;;20.90;91.10;;;;;;4873856;29;20059;-73
2023/09/29 08:58:23;;;;;;;9.57;4.03;;;20.90;91.10;;;;;;4890696;29;20033;-74
2023/09/29 09:00:50;;;;;;;7.15;3.33;;;21.00;91.40;;;;;;4891003;29;20033;-74
2023/09/29 09:03:17;;;;;;;7.60;3.38;;;21.10;90.90;;;;;;4909331;29;20050;-76
2023/09/29 09:05:43;;;;;;;9.13;4.00;;;21.30;91.10;;;;;;4905966;29;20370;-74
2023/09/29 09:08:11;;;;;;;12.13;3.58;;;21.50;90.90;;;;;;4889790;29;20429;-74
2023/09/29 09:10:38;;;;;;;8.20;3.45;;;21.80;90.30;;;;;;4892477;29;20035;-75
2023/09/29 09:13:07;;;;;;;6.95;3.10;;;22.00;90.10;;;;;;4892005;29;20024;-74
2023/09/29 09:15:33;;;;;;;8.88;3.45;;;22.20;89.70;;;;;;4903201;29;20040;-75
2023/09/29 09:18:00;;;;;;;9.35;3.72;;;22.40;88.30;;;;;;4896729;29;20366;-76
2023/09/29 09:20:26;;;;;;;7.85;3.60;;;22.60;87.90;;;;;;4902876;29;20247;-74
2023/09/29 09:22:59;;;;;;;7.60;3.38;;;22.80;86.90;;;;;;4891599;29;20032;-76
2023/09/29 09:25:38;;;;;;;10.70;3.60;;;23.30;85.80;;;;;;4907232;29;20214;-74
2023/09/29 09:28:05;;;;;;;9.00;3.80;;;23.70;84.10;;;;;;4891473;29;20044;-75
2023/09/29 09:30:35;;;;;;;6.30;3.03;;;24.20;82.90;;;;;;4908198;29;20040;-76
2023/09/29 09:33:03;;;;;;;6.00;3.35;;;24.60;81.80;;;;;;4908222;29;20273;-76
2023/09/29 09:35:30;;;;;;;5.80;3.17;;;24.70;80.70;;;;;;4905039;29;20032;-76
2023/09/29 09:37:57;;;;;;;7.45;3.40;;;25.00;79.70;;;;;;4889281;29;20036;-75
2023/09/29 09:40:26;;;;;;;9.20;3.30;;;25.10;79.30;;;;;;4890131;29;20081;-76
2023/09/29 09:43:02;;;;;;;12.00;3.42;;;25.30;79.20;;;;;;4898002;29;20345;-75
2023/09/29 09:45:39;;;;;;;10.52;2.90;;;25.40;78.60;;;;;;4908401;29;20242;-75
2023/09/29 09:48:07;;;;;;;7.53;3.42;;;25.40;78.40;;;;;;4907725;29;20337;-76
2023/09/29 09:50:36;;;;;;;5.82;3.08;;;25.50;77.50;;;;;;4908206;29;20032;-76
2023/09/29 09:53:03;;;;;;;8.88;3.58;;;25.50;77.50;;;;;;4907821;29;20091;-75
2023/09/29 09:55:52;;;;;;;8.10;3.42;;;25.60;77.50;;;;;;4908186;29;20115;-75
2023/09/29 09:58:22;;;;;;;8.50;3.50;;;25.70;77.00;;;;;;4898526;29;20078;-73
2023/09/29 10:00:54;;;;;;;7.85;3.15;;;25.70;76.50;;;;;;4903487;29;20276;-76
2023/09/29 10:03:21;;;;;;;8.00;3.03;;;25.60;77.00;;;;;;4898766;29;20044;-75
2023/09/29 10:05:52;;;;;;;9.80;3.50;;;25.50;77.20;;;;;;4896961;29;20028;-74
2023/09/29 10:08:32;;;;;;;6.85;2.53;;;25.90;76.90;;;;;;4899808;29;20075;-74
2023/09/29 10:11:15;;;;;;;7.38;2.72;;;26.20;76.30;;;;;;4902516;29;20036;-76
2023/09/29 10:13:44;;;;;;;5.15;2.08;;;26.60;74.90;;;;;;4907525;29;20047;-75
2023/09/29 10:16:23;;;;;;;4.20;1.90;;;26.90;72.20;;;;;;4907193;29;20033;-73
2023/09/29 10:18:57;;;;;;;3.20;1.85;;;27.00;69.00;;;;;;4907209;29;20088;-74
2023/09/29 10:21:23;;;;;;;3.50;1.95;;;27.30;68.90;;;;;;4908058;29;20043;-75
2023/09/29 10:23:50;;;;;;;4.20;1.90;;;27.40;68.10;;;;;;4907077;29;20219;-74
2023/09/29 10:26:16;;;;;;;3.75;1.80;;;27.50;67.20;;;;;;4902382;29;20337;-74
2023/09/29 10:28:45;;;;;;;4.85;1.88;;;27.50;67.50;;;;;;4902517;29;20222;-75
2023/09/29 10:31:16;;;;;;;4.68;2.03;;;27.70;67.40;;;;;;4898973;29;20020;-76
2023/09/29 10:33:52;;;;;;;3.60;1.77;;;27.70;67.30;;;;;;4891698;29;20029;-73
2023/09/29 10:36:23;;;;;;;5.93;2.22;;;27.60;67.10;;;;;;4902079;29;20032;-74
2023/09/29 10:38:49;;;;;;;6.20;2.42;;;27.50;67.40;;;;;;4907202;29;20074;-75
2023/09/29 10:41:18;;;;;;;3.10;1.80;;;27.50;67.10;;;;;;4907835;29;20075;-74
2023/09/29 10:43:48;;;;;;;3.28;1.77;;;27.50;67.50;;;;;;4907311;29;20029;-75
2023/09/29 10:46:15;;;;;;;3.50;1.88;;;27.60;67.10;;;;;;4906313;29;20056;-74
2023/09/29 10:48:52;;;;;;;3.80;1.52;;;27.80;66.90;;;;;;4867207;29;20028;-73
2023/09/29 10:51:25;;;;;;;2.90;1.70;;;28.20;66.20;;;;;;4898766;29;20029;-73
2023/09/29 10:53:51;;;;;;;3.28;1.75;;;28.60;65.90;;;;;;4887780;29;20032;-74
2023/09/29 10:56:23;;;;;;;5.57;1.92;;;29.00;65.10;;;;;;4902851;29;20029;-73
2023/09/29 10:58:53;;;;;;;4.70;1.77;;;29.50;64.10;;;;;;4906760;29;20099;-73
2023/09/29 11:01:33;;;;;;;3.20;2.00;;;29.80;63.00;;;;;;4907454;29;20032;-73
2023/09/29 11:04:07;;;;;;;3.05;1.70;;;30.60;62.50;;;;;;4896690;29;20067;-73
2023/09/29 11:06:45;;;;;;;6.18;1.83;;;31.00;61.60;;;;;;4889132;29;20036;-74
2023/09/29 11:09:19;;;;;;;4.55;1.70;;;31.60;60.30;;;;;;4891921;29;20267;-74
2023/09/29 11:11:46;;;;;;;4.30;2.03;;;32.00;59.70;;;;;;4911196;29;20219;-73
2023/09/29 11:14:12;;;;;;;3.42;2.20;;;32.30;59.30;;;;;;4911292;29;20040;-73
2023/09/29 11:16:38;;;;;;;4.15;1.83;;;32.40;59.10;;;;;;4911058;29;20036;-75
2023/09/29 11:19:12;;;;;;;3.78;1.80;;;32.90;58.50;;;;;;4910639;29;20055;-72
2023/09/29 11:21:39;;;;;;;3.75;2.10;;;33.00;58.80;;;;;;4901805;29;20028;-72
2023/09/29 11:24:06;;;;;;;4.80;2.30;;;33.00;58.20;;;;;;4893844;29;20088;-72
2023/09/29 11:26:32;;;;;;;;;;;33.40;57.90;;;;;;4892665;29;20028;-70
2023/09/29 11:28:58;;;;;;;3.20;1.83;;;32.90;58.30;;;;;;4891470;29;19942;-73
2023/09/29 11:31:25;;;;;;;4.38;2.20;;;33.50;58.00;;;;;;4891970;29;20207;-73
2023/09/29 11:33:51;;;;;;;5.25;1.95;;;33.40;57.90;;;;;;4891666;29;20025;-73
2023/09/29 11:36:18;;;;;;;4.13;1.88;;;34.00;57.50;;;;;;4900988;29;20053;-74
2023/09/29 11:38:45;;;;;;;2.90;1.90;;;34.30;57.00;;;;;;4893594;29;20230;-74
2023/09/29 11:41:13;;;;;;;5.05;2.38;;;34.80;56.50;;;;;;4910775;29;20024;-73
2023/09/29 11:43:40;;;;;;;3.63;1.80;;;34.80;56.20;;;;;;4895241;29;20033;-73
2023/09/29 11:46:06;;;;;;;4.30;1.92;;;34.40;56.90;;;;;;4908173;29;20287;-72
2023/09/29 11:48:32;;;;;;;4.47;1.90;;;34.90;56.10;;;;;;4910236;29;20032;-73
2023/09/29 11:50:58;;;;;;;4.63;2.05;;;34.90;56.00;;;;;;4909847;29;20032;-72
2023/09/29 11:53:24;;;;;;;3.20;1.95;;;35.10;55.70;;;;;;4902124;29;20262;-72
2023/09/29 11:55:50;;;;;;;3.10;1.80;;;34.80;55.80;;;;;;4901235;29;20052;-73
2023/09/29 11:58:16;;;;;;;3.58;2.03;;;34.60;56.50;;;;;;4903144;29;20036;-74
2023/09/29 12:00:42;;;;;;;7.85;2.25;;;34.80;55.70;;;;;;4909838;29;20021;-72
2023/09/29 12:03:08;;;;;;;3.72;1.90;;;34.40;55.80;;;;;;4896710;29;20222;-73
2023/09/29 12:05:37;;;;;;;6.78;2.40;;;33.90;56.30;;;;;;4893431;29;20061;-74
2023/09/29 12:08:04;;;;;;;3.47;2.00;;;33.50;56.90;;;;;;4893084;29;20036;-74
2023/09/29 12:10:31;;;;;;;3.85;1.60;;;33.60;56.60;;;;;;4909882;29;20020;-73
2023/09/29 12:12:58;;;;;;;5.13;2.15;;;33.80;56.00;;;;;;4909746;29;20329;-73
2023/09/29 12:15:24;;;;;;;4.43;2.20;;;34.20;55.90;;;;;;4891888;29;20183;-73
2023/09/29 12:17:50;;;;;;;5.78;2.28;;;34.10;56.00;;;;;;4909626;29;20202;-73
2023/09/29 12:20:16;;;;;;;4.00;2.22;;;35.00;54.90;;;;;;4909921;29;20104;-76
2023/09/29 12:22:44;;;;;;;4.93;2.13;;;35.90;54.30;;;;;;4894680;29;20044;-74
2023/09/29 12:25:11;;;;;;;4.75;1.80;;;36.50;53.50;;;;;;4890890;29;20056;-73
2023/09/29 12:27:38;;;;;;;6.53;2.30;;;37.30;52.40;;;;;;4890793;29;20307;-73
2023/09/29 12:30:08;;;;;;;4.07;1.83;;;36.40;52.70;;;;;;4893792;29;20046;-73
2023/09/29 12:32:37;;;;;;;4.68;1.70;;;37.10;52.70;;;;;;4909339;29;20260;-73
2023/09/29 12:35:04;;;;;;;4.03;1.90;;;37.00;51.80;;;;;;4908939;29;20020;-74
2023/09/29 12:37:30;;;;;;;4.97;1.65;;;37.40;52.00;;;;;;4909677;29;20035;-73
2023/09/29 12:39:56;;;;;;;6.78;1.80;;;38.10;50.90;;;;;;4909412;29;20081;-72
2023/09/29 12:42:22;;;;;;;3.10;1.63;;;37.90;50.50;;;;;;4909798;29;20028;-72
2023/09/29 12:44:49;;;;;;;2.33;1.40;;;38.70;49.70;;;;;;4909713;29;20041;-74
2023/09/29 12:47:15;;;;;;;4.60;1.85;;;38.90;49.60;;;;;;4904682;29;20024;-73
2023/09/29 12:49:40;;;;;;;2.83;1.80;;;39.30;49.40;;;;;;4892443;29;20021;-74
2023/09/29 12:52:08;;;;;;;3.47;1.50;;;38.20;50.20;;;;;;4891587;29;20037;-73
2023/09/29 12:54:41;;;;;;;2.92;1.55;;;36.60;49.80;;;;;;4890410;29;20319;-73
2023/09/29 12:57:07;;;;;;;3.03;1.40;;;35.70;51.80;;;;;;4873715;29;20226;-74
2023/09/29 12:59:36;;;;;;;4.63;1.33;;;36.50;50.50;;;;;;4890694;29;20025;-73
2023/09/29 13:02:08;;;;;;;4.95;1.65;;;37.90;49.10;;;;;;4890185;29;20029;-72
2023/09/29 13:04:37;;;;;;;4.72;1.60;;;38.10;48.60;;;;;;4890146;29;20103;-73
2023/09/29 13:07:06;;;;;;;2.67;1.55;;;38.40;48.80;;;;;;4890331;29;20067;-73
2023/09/29 13:09:32;;;;;;;3.88;1.70;;;38.90;48.70;;;;;;4890317;29;20033;-73
2023/09/29 13:11:58;;;;;;;2.63;1.30;;;39.30;48.40;;;;;;4895198;29;20043;-73
2023/09/29 13:14:24;;;;;;;3.35;1.70;;;39.40;47.90;;;;;;4877707;29;20077;-74
2023/09/29 13:16:50;;;;;;;3.88;1.42;;;39.00;48.20;;;;;;4899074;29;20033;-74
2023/09/29 13:19:16;;;;;;;4.30;1.48;;;39.00;47.80;;;;;;4895602;29;20029;-73
2023/09/29 13:21:41;;;;;;;3.30;1.60;;;39.50;48.00;;;;;;4891084;29;20033;-73
2023/09/29 13:24:08;;;;;;;2.88;1.30;;;39.50;47.60;;;;;;4893175;29;20032;-74
2023/09/29 13:26:34;;;;;;;2.60;1.60;;;40.00;47.40;;;;;;4889845;29;20064;-72
2023/09/29 13:29:00;;;;;;;2.72;1.52;;;39.70;47.60;;;;;;4889562;29;20033;-73
2023/09/29 13:31:26;;;;;;;5.00;1.77;;;39.70;46.80;;;;;;4890004;29;20036;-73
2023/09/29 13:33:53;;;;;;;3.08;1.40;;;40.20;46.30;;;;;;4889456;29;20033;-73
2023/09/29 13:36:19;;;;;;;3.90;1.57;;;40.30;46.30;;;;;;4889692;29;20235;-74
2023/09/29 13:38:45;;;;;;;4.22;1.40;;;39.60;46.80;;;;;;4873557;29;20123;-73
2023/09/29 13:41:11;;;;;;;3.05;1.27;;;37.50;48.40;;;;;;4889375;29;20302;-74
2023/09/29 13:43:38;;;;;;;3.00;1.50;;;37.30;49.10;;;;;;4889959;29;20164;-73
2023/09/29 13:46:08;;;;;;;5.13;1.63;;;36.10;50.20;;;;;;4889296;29;20044;-73
2023/09/29 13:48:34;;;;;;;2.85;1.55;;;36.20;50.80;;;;;;4904266;29;20033;-72
2023/09/29 13:51:03;;;;;;;3.25;1.77;;;35.10;51.70;;;;;;4907958;29;20318;-74
2023/09/29 13:53:29;;;;;;;6.32;2.00;;;34.40;53.00;;;;;;4908247;29;20016;-73
2023/09/29 13:55:55;;;;;;;3.17;1.67;;;33.90;53.80;;;;;;4885443;29;20250;-72
2023/09/29 13:58:20;;;;;;;7.45;1.98;;;33.10;54.80;;;;;;4908130;29;20036;-73
2023/09/29 14:00:49;;;;;;;4.28;1.80;;;32.90;55.70;;;;;;4908190;29;20035;-73
2023/09/29 14:03:15;;;;;;;3.55;1.83;;;32.40;56.10;;;;;;4907697;29;20044;-74
2023/09/29 14:05:44;;;;;;;5.78;1.73;;;31.60;57.50;;;;;;4891658;29;20049;-73
2023/09/29 14:08:10;;;;;;;2.95;1.73;;;31.10;58.20;;;;;;4890943;29;20096;-72
2023/09/29 14:10:36;;;;;;;5.13;2.00;;;30.70;58.90;;;;;;4906588;29;20032;-73
2023/09/29 14:13:03;;;;;;;5.00;2.15;;;30.40;59.30;;;;;;4890540;29;20318;-73
2023/09/29 14:15:32;;;;;;;3.60;1.75;;;30.20;59.90;;;;;;4889543;29;20310;-75
2023/09/29 14:17:58;;;;;;;2.42;1.60;;;31.10;59.00;;;;;;4888721;29;20036;-73
2023/09/29 14:20:24;;;;;;;3.00;1.83;;;31.90;58.00;;;;;;4889132;29;20044;-73
2023/09/29 14:22:49;;;;;;;3.38;1.70;;;34.00;55.50;;;;;;4889157;29;20044;-76
2023/09/29 14:25:15;;;;;;;2.90;1.63;;;34.80;53.90;;;;;;4888599;29;20033;-74
2023/09/29 14:27:41;;;;;;;3.20;1.58;;;34.40;53.70;;;;;;4888899;29;20021;-74
2023/09/29 14:30:07;;;;;;;3.50;1.80;;;34.10;54.60;;;;;;4888679;29;20211;-74
2023/09/29 14:32:33;;;;;;;3.42;2.10;;;33.50;55.70;;;;;;4889318;29;20029;-76
2023/09/29 14:35:00;;;;;;;3.17;1.80;;;32.90;56.20;;;;;;4888474;29;20029;-73
2023/09/29 14:37:26;;;;;;;3.55;1.95;;;32.60;56.70;;;;;;4889077;29;20025;-73
2023/09/29 14:39:53;;;;;;;5.32;2.22;;;32.30;57.00;;;;;;4888292;29;20076;-73
2023/09/29 14:42:19;;;;;;;4.50;2.28;;;31.40;59.30;;;;;;4894437;29;20073;-74
2023/09/29 14:44:45;;;;;;;7.22;2.78;;;30.50;61.60;;;;;;4907550;29;20032;-73
2023/09/29 14:47:10;;;;;;;5.72;2.20;;;30.00;63.50;;;;;;4907375;29;20064;-73
2023/09/29 14:49:36;;;;;;;6.25;2.40;;;29.50;65.50;;;;;;4891101;29;20314;-73
2023/09/29 14:52:02;;;;;;;8.45;2.55;;;29.10;67.20;;;;;;4906946;29;20020;-72
2023/09/29 14:54:28;;;;;;;6.63;2.45;;;28.70;68.60;;;;;;4907243;29;20047;-74
2023/09/29 14:56:53;;;;;;;5.97;2.10;;;28.10;70.20;;;;;;4907736;29;20041;-74
2023/09/29 14:59:20;;;;;;;4.80;2.30;;;27.80;71.60;;;;;;4893882;29;20374;-74
2023/09/29 15:01:47;;;;;;;4.65;2.13;;;28.10;71.20;;;;;;4889112;29;20025;-74
2023/09/29 15:04:13;;;;;;;4.82;2.28;;;28.10;71.20;;;;;;4887888;29;20051;-75
2023/09/29 15:06:39;;;;;;;8.13;2.40;;;28.60;70.50;;;;;;4888597;29;20200;-75
2023/09/29 15:09:05;;;;;;;3.25;1.95;;;29.30;69.10;;;;;;4888421;29;20039;-73
2023/09/29 15:11:30;;;;;;;5.75;2.13;;;30.10;67.20;;;;;;4888953;29;20037;-72
2023/09/29 15:13:56;;;;;;;9.20;2.88;;;29.90;67.60;;;;;;4875584;29;20024;-76
2023/09/29 15:16:24;;;;;;;4.50;2.05;;;29.20;69.10;;;;;;4907676;29;20029;-74
2023/09/29 15:18:51;;;;;;;9.33;2.53;;;28.40;71.10;;;;;;4907551;29;20048;-74
2023/09/29 15:21:18;;;;;;;4.55;2.35;;;27.70;72.80;;;;;;4906938;29;20449;-74
2023/09/29 15:23:44;;;;;;;4.93;2.25;;;27.10;74.60;;;;;;4907126;29;20282;-74
2023/09/29 15:26:10;;;;;;;9.73;2.63;;;26.80;75.50;;;;;;4906676;29;20036;-74
2023/09/29 15:28:36;;;;;;;6.22;2.65;;;26.70;76.10;;;;;;4906729;29;20035;-74
2023/09/29 15:31:01;;;;;;;6.38;2.97;;;26.60;76.70;;;;;;4891221;29;20025;-75
2023/09/29 15:33:27;;;;;;;7.30;2.33;;;26.60;76.10;;;;;;4888425;29;20109;-75
2023/09/29 15:35:54;;;;;;;5.47;2.42;;;26.40;76.20;;;;;;4888519;29;20045;-73
2023/09/29 15:38:22;;;;;;;7.60;3.40;;;26.40;76.60;;;;;;4888003;29;20036;-76
2023/09/29 15:40:50;;;;;;;6.35;2.65;;;26.20;76.90;;;;;;4872246;29;20057;-75
2023/09/29 15:43:16;;;;;;;10.15;3.45;;;26.00;77.40;;;;;;4888042;29;20039;-72
2023/09/29 15:45:42;;;;;;;7.78;3.58;;;25.80;77.60;;;;;;4888261;29;20032;-75
2023/09/29 15:48:08;;;;;;;9.45;3.63;;;25.50;78.20;;;;;;4899401;29;20035;-74
2023/09/29 15:50:33;;;;;;;7.95;3.17;;;25.40;78.70;;;;;;4909117;29;20028;-74
2023/09/29 15:52:59;;;;;;;8.05;3.90;;;25.30;78.90;;;;;;4909965;29;20074;-75
2023/09/29 15:55:25;;;;;;;9.90;3.30;;;25.20;78.80;;;;;;4910138;29;20048;-74
2023/09/29 15:57:52;;;;;;;11.55;4.03;;;25.20;78.60;;;;;;4910678;29;20025;-74
2023/09/29 16:00:18;;;;;;;10.13;4.78;;;25.10;78.70;;;;;;4908326;29;20088;-76
2023/09/29 16:02:44;;;;;;;8.93;3.80;;;25.20;78.10;;;;;;4893097;29;20303;-74
2023/09/29 16:05:10;;;;;;;12.25;5.05;;;25.10;78.40;;;;;;4891512;29;20040;-74
2023/09/29 16:07:37;;;;;;;12.52;5.43;;;25.20;78.10;;;;;;4891760;29;20371;-74
2023/09/29 16:10:03;;;;;;;11.43;5.00;;;25.10;77.30;;;;;;4891422;29;20037;-76
2023/09/29 16:12:29;;;;;;;14.27;6.07;;;25.70;76.20;;;;;;4891740;29;20033;-73
2023/09/29 16:14:55;;;;;;;13.75;7.22;;;26.00;75.30;;;;;;4891348;29;20052;-76
2023/09/29 16:17:20;;;;;;;16.65;7.18;;;26.10;73.70;;;;;;4893966;29;20041;-76
2023/09/29 16:19:46;;;;;;;15.55;8.13;;;26.20;73.00;;;;;;4891188;29;20218;-74
2023/09/29 16:22:12;;;;;;;20.63;8.85;;;25.80;73.20;;;;;;4890755;29;20037;-75
2023/09/29 16:24:43;;;;;;;21.00;10.10;;;25.30;74.50;;;;;;4890767;29;20306;-73
2023/09/29 16:27:10;;;;;;;20.20;9.70;;;24.70;75.90;;;;;;4890857;29;20298;-74
2023/09/29 16:29:36;;;;;;;20.30;9.27;;;24.30;77.50;;;;;;4874719;29;20095;-73
2023/09/29 16:32:02;;;;;;;21.95;9.75;;;23.90;78.70;;;;;;4893855;29;20315;-75
2023/09/29 16:34:28;;;;;;;22.85;9.98;;;23.60;79.70;;;;;;4891038;29;20029;-75
2023/09/29 16:36:54;;;;;;;26.50;12.10;;;23.30;80.10;;;;;;4874562;29;20215;-74
2023/09/29 16:39:20;;;;;;;24.98;11.07;;;23.20;80.80;;;;;;4890311;29;20044;-75
2023/09/29 16:41:46;;;;;;;24.77;11.88;;;23.00;81.20;;;;;;4891165;29;20037;-77
2023/09/29 16:44:12;;;;;;;26.27;11.95;;;22.90;81.60;;;;;;4890509;29;20037;-76
2023/09/29 16:46:38;;;;;;;27.20;12.15;;;22.90;81.90;;;;;;4890691;29;20047;-74
2023/09/29 16:49:05;;;;;;;23.42;12.13;;;22.70;81.90;;;;;;4906977;29;20091;-74
2023/09/29 16:51:32;;;;;;;32.38;14.75;;;22.70;82.20;;;;;;4909254;29;20092;-74
2023/09/29 16:54:02;;;;;;;27.20;12.57;;;22.70;81.80;;;;;;4909059;29;20036;-73
2023/09/29 16:56:28;;;;;;;29.60;12.93;;;22.60;82.10;;;;;;4909474;29;20104;-73
2023/09/29 16:58:55;;;;;;;32.10;14.27;;;22.60;82.10;;;;;;4909352;29;20092;-73
2023/09/29 17:01:22;;;;;;;30.85;14.32;;;22.50;81.60;;;;;;4908312;29;20020;-75
2023/09/29 17:03:47;;;;;;;32.13;13.38;;;22.50;81.50;;;;;;4898967;29;20057;-72
2023/09/29 17:06:14;;;;;;;34.67;15.88;;;22.40;81.30;;;;;;4877462;29;20032;-73
2023/09/29 17:08:40;;;;;;;31.45;14.43;;;22.30;81.20;;;;;;4894685;29;20033;-75
2023/09/29 17:11:17;;;;;;;35.28;15.95;;;22.20;82.40;;;;;;4906786;29;20024;-74
2023/09/29 17:13:44;;;;;;;31.80;15.43;;;22.10;81.90;;;;;;4904944;29;20029;-73
2023/09/29 17:16:11;;;;;;;35.50;15.02;;;22.00;82.00;;;;;;4889813;29;20075;-73
2023/09/29 17:18:38;;;;;;;33.30;14.55;;;21.90;81.90;;;;;;4891282;29;20028;-74
2023/09/29 17:21:04;;;;;;;32.17;13.88;;;21.80;81.70;;;;;;4907418;29;20039;-73
2023/09/29 17:23:31;;;;;;;32.33;14.63;;;21.80;81.70;;;;;;4908661;29;20159;-73
2023/09/29 17:25:57;;;;;;;32.08;14.07;;;21.70;82.00;;;;;;4908869;29;20080;-75
2023/09/29 17:28:23;;;;;;;34.33;13.63;;;21.70;82.00;;;;;;4908157;29;20024;-74
2023/09/29 17:30:49;;;;;;;33.25;14.07;;;21.70;82.00;;;;;;4891878;29;20041;-73
2023/09/29 17:33:14;;;;;;;33.72;15.02;;;21.60;82.10;;;;;;4908165;29;20336;-73
2023/09/29 17:35:40;;;;;;;34.20;14.68;;;21.50;82.50;;;;;;4897817;29;20025;-74
2023/09/29 17:38:06;;;;;;;31.65;13.50;;;21.40;82.70;;;;;;4889650;29;20033;-74
2023/09/29 17:40:33;;;;;;;31.33;13.95;;;21.30;83.00;;;;;;4903313;29;20314;-74
2023/09/29 17:42:59;;;;;;;32.60;13.80;;;21.30;83.20;;;;;;4911761;29;20096;-74
2023/09/29 17:45:25;;;;;;;33.15;13.23;;;21.30;83.20;;;;;;4912028;29;20307;-73
2023/09/29 17:47:51;;;;;;;31.02;13.10;;;21.30;83.30;;;;;;4887074;29;20034;-74
2023/09/29 17:50:17;;;;;;;29.17;12.73;;;21.20;83.30;;;;;;4891619;29;20322;-74
2023/09/29 17:52:43;;;;;;;29.48;12.82;;;21.20;83.30;;;;;;4896900;29;20271;-75
2023/09/29 17:55:09;;;;;;;28.50;12.70;;;21.10;83.50;;;;;;4907595;29;20041;-75
2023/09/29 17:57:34;;;;;;;28.42;12.85;;;21.10;83.80;;;;;;4908447;29;20029;-75
2023/09/29 18:00:03;;;;;;;28.42;12.85;;;21.10;84.00;;;;;;4908442;29;20040;-75
2023/09/29 18:02:32;;;;;;;31.90;13.05;;;21.10;84.10;;;;;;4908203;29;20028;-74
2023/09/29 18:04:58;;;;;;;28.60;12.55;;;21.00;84.00;;;;;;4908389;29;20149;-73